Clifton, IL

10:44 AM CST on November 22, 2014 (GMT -0600)
Greater Kankakee | Change Station
CLOSE
Current Station
Airport
Location: Kankakee,
Elevation: 630 ft
Nearby Weather Stations

Elev 630 ft 41.07 °N, 87.85 °W | Updated 9 minutes ago

Overcast
Overcast
44 °F
Feels Like 36 °F
N
16
Wind Variable Wind from South

Today
High -- | Low -- °F
--% Chance of Precip.
Yesterday
High -- | Low -- °F
Precip. -- in
6:47 AM 4:28 PM
New Moon, 0% visible
Pressure 30.02 in
Visibility 5.0 miles
Clouds Overcast 1900 ft
Windchill 36 °F
Dew Point 41 °F
Humidity 90%
Rainfall 0.17 in
Snow Depth Not available.
UV 1 out of 12
Pollen .10 out of 12
Air Quality Not available.
Flu Activity Not available.
METAR KIKK 221635Z AUTO 19014KT 5SM -RA OVC019 06/05 A3002 RMK AO2 T00640049

More Conditions Fewer Conditions

Pressure 30.02 in
Visibility 5.0 miles
Clouds Overcast 1900 ft
Windchill 36 °F
Dew Point 41 °F
Humidity 90%
Rainfall 0.17 in
Snow Depth Not available.
UV 1 out of 12
Pollen .10 out of 12
Air Quality Not available.
Flu Activity Not available.
METAR KIKK 221635Z AUTO 19014KT 5SM -RA OVC019 06/05 A3002 RMK AO2 T00640049

More Conditions Fewer Conditions

10-Day Weather Forecast

Almanac

Astronomy

Nov. 22, 2014 Rise Set
Actual Time
Civil Twilight
Nautical Twilight
Astronomical Twilight
Moon
Length of Visible Light
Length of Day
Tomorrow will be .
, % of the Moon is Illuminated

Today's Extremes

State Highs State Lows

Community

WunderPhotos

Upload Photos

1,772,855 photos uploaded!

WunderBlogs® & News

Nearby

Air Quality

  Air Quality AQ Index Pollutant
Not available.

Snow Depth

Station Depth Elevation

Earthquake Activity

City Distance Mag. Time & Date
Minimum magnitude displayed is 2.5.

Coastal Water Temperatures

Place Temperature

Nearby Weather Stations